Time;durP1;ratioP1;P1;durP2;ratioP2;P2;SDS_P1;SDS_P2;PMS_P1;PMS_P2;Temp;Humidity;BMP_temperature;BMP_pressure;BME280_temperature;BME280_humidity;BME280_pressure;Samples;Min_cycle;Max_cycle;Signal;HPM_P1;HPM_P2
2023/09/13 00:02:18;;;;;;;;;;;16.60;71.00;;;;;;4074440;29;20024;-87
2023/09/13 00:04:38;;;;;;;;;;;16.60;70.80;;;;;;4073214;29;20014;-89
2023/09/13 00:06:59;;;;;;;;;;;16.60;70.70;;;;;;4072279;29;19987;-86
2023/09/13 00:09:20;;;;;;;;;;;16.60;70.60;;;;;;4071535;29;20417;-87
2023/09/13 00:11:41;;;;;;;;;;;16.50;70.30;;;;;;4073255;29;19998;-87
2023/09/13 00:14:01;;;;;;;;;;;16.50;70.20;;;;;;4075672;29;19994;-84
2023/09/13 00:16:22;;;;;;;;;;;16.40;69.90;;;;;;4073294;29;19922;-87
2023/09/13 00:18:42;;;;;;;;;;;16.50;69.90;;;;;;4085721;28;19927;-86
2023/09/13 00:21:03;;;;;;;;;;;16.50;69.70;;;;;;4072347;29;20480;-86
2023/09/13 00:23:24;;;;;;;;;;;16.50;69.50;;;;;;4069410;29;20194;-85
2023/09/13 00:25:24;;;;;;;;;;;16.40;69.20;;;;;;4073433;29;19922;-87
2023/09/13 00:27:25;;;;;;;;;;;16.40;69.20;;;;;;4090210;28;19922;-86
2023/09/13 00:29:25;;;;;;;;;;;16.40;69.10;;;;;;4077407;29;19919;-85
2023/09/13 00:31:46;;;;;;;;;;;16.40;69.00;;;;;;4083993;28;19958;-86
2023/09/13 00:34:09;;;;;;;;;;;16.40;68.90;;;;;;4072223;28;19970;-85
2023/09/13 00:36:30;;;;;;;;;;;16.30;68.50;;;;;;4073010;29;20224;-85
2023/09/13 00:38:51;;;;;;;;;;;16.40;68.20;;;;;;4071255;29;19922;-86
2023/09/13 00:41:11;;;;;;;;;;;16.30;67.80;;;;;;4066173;29;20056;-87
2023/09/13 00:43:32;;;;;;;;;;;16.30;67.30;;;;;;4072258;28;19993;-86
2023/09/13 00:45:53;;;;;;;;;;;16.30;67.20;;;;;;4070663;29;19926;-87
2023/09/13 00:47:59;;;;;;;;;;;16.30;67.20;;;;;;4068493;29;19922;-85
2023/09/13 00:50:20;;;;;;;;;;;16.30;67.60;;;;;;4082501;28;19970;-87
2023/09/13 00:52:41;;;;;;;;;;;16.30;66.90;;;;;;4073219;29;19923;-86
2023/09/13 00:54:58;;;;;;;;;;;16.30;67.30;;;;;;4071018;29;19974;-85
2023/09/13 00:57:20;;;;;;;;;;;16.30;66.40;;;;;;4071535;29;20041;-87
2023/09/13 00:59:40;;;;;;;;;;;16.20;65.80;;;;;;4073465;29;19919;-86
2023/09/13 01:02:01;;;;;;;;;;;16.30;65.70;;;;;;4070510;29;19923;-85
2023/09/13 01:04:21;;;;;;;;;;;16.30;65.50;;;;;;4070219;29;19974;-87
2023/09/13 01:06:42;;;;;;;;;;;16.20;65.30;;;;;;4071157;28;20002;-86
2023/09/13 01:09:04;;;;;;;;;;;16.20;65.90;;;;;;4070215;29;20226;-86
2023/09/13 01:11:25;;;;;;;;;;;16.20;65.50;;;;;;4068094;29;19942;-86
2023/09/13 01:13:45;;;;;;;;;;;16.20;65.70;;;;;;4070057;29;19977;-85
2023/09/13 01:16:29;;;;;;;;;;;16.10;65.30;;;;;;4073516;29;19922;-85
2023/09/13 01:18:49;;;;;;;;;;;16.10;65.60;;;;;;4067970;29;19933;-86
2023/09/13 01:21:32;;;;;;;;;;;16.20;65.50;;;;;;4059786;29;20068;-85
2023/09/13 01:23:39;;;;;;;;;;;16.10;64.90;;;;;;4071063;29;19999;-87
2023/09/13 01:25:58;;;;;;;;;;;16.10;65.00;;;;;;4072303;29;19915;-84
2023/09/13 01:28:12;;;;;;;;;;;16.10;65.30;;;;;;4086277;28;20381;-84
2023/09/13 01:30:34;;;;;;;;;;;16.10;65.20;;;;;;4072309;29;19933;-86
2023/09/13 01:32:54;;;;;;;;;;;16.10;65.60;;;;;;4074225;29;20010;-84
2023/09/13 01:35:15;;;;;;;;;;;16.00;65.40;;;;;;4072682;29;19962;-86
2023/09/13 01:37:35;;;;;;;;;;;16.20;65.70;;;;;;4070554;29;19923;-86
2023/09/13 01:39:56;;;;;;;;;;;16.10;65.00;;;;;;4087315;28;19997;-85
2023/09/13 01:42:17;;;;;;;;;;;16.10;65.20;;;;;;4071407;29;19950;-86
2023/09/13 01:44:40;;;;;;;;;;;16.10;65.10;;;;;;4068842;29;19962;-86
2023/09/13 01:47:03;;;;;;;;;;;16.00;65.30;;;;;;4063392;29;19965;-86
2023/09/13 01:49:24;;;;;;;;;;;16.10;65.50;;;;;;4070724;29;19923;-85
2023/09/13 01:51:45;;;;;;;;;;;16.10;65.50;;;;;;4070224;29;19922;-87
2023/09/13 01:53:46;;;;;;;;;;;16.10;65.60;;;;;;4070560;29;20361;-85
2023/09/13 01:55:46;;;;;;;;;;;16.10;65.70;;;;;;4070678;29;19923;-85
2023/09/13 01:57:47;;;;;;;;;;;16.10;65.60;;;;;;4070789;29;19922;-85
2023/09/13 01:59:47;;;;;;;;;;;16.10;66.00;;;;;;4070042;29;21292;-85
2023/09/13 02:01:48;;;;;;;;;;;16.00;66.00;;;;;;4074142;29;20169;-86
2023/09/13 02:03:49;;;;;;;;;;;16.10;66.00;;;;;;4072221;29;19929;-87
2023/09/13 02:06:09;;;;;;;;;;;16.10;66.00;;;;;;4083336;28;20083;-85
2023/09/13 02:08:30;;;;;;;;;;;16.10;66.00;;;;;;4071219;29;19930;-86
2023/09/13 02:10:50;;;;;;;;;;;16.00;66.20;;;;;;4073006;29;19923;-86
2023/09/13 02:13:11;;;;;;;;;;;16.00;66.10;;;;;;4072387;29;20049;-86
2023/09/13 02:15:32;;;;;;;;;;;16.00;66.10;;;;;;4069702;29;19933;-85
2023/09/13 02:17:52;;;;;;;;;;;16.10;66.20;;;;;;4072693;29;20069;-85
2023/09/13 02:20:13;;;;;;;;;;;16.00;66.20;;;;;;4070092;29;20006;-86
2023/09/13 02:22:33;;;;;;;;;;;16.00;66.30;;;;;;4073013;29;19950;-85
2023/09/13 02:24:54;;;;;;;;;;;16.00;66.40;;;;;;4077863;29;19962;-85
2023/09/13 02:27:14;;;;;;;;;;;16.10;66.30;;;;;;4071811;29;19958;-86
2023/09/13 02:29:35;;;;;;;;;;;16.10;66.40;;;;;;4081761;28;21130;-86
2023/09/13 02:31:55;;;;;;;;;;;16.00;66.40;;;;;;4072299;29;19968;-86
2023/09/13 02:34:18;;;;;;;;;;;16.00;66.50;;;;;;4073180;29;20041;-88
2023/09/13 02:36:39;;;;;;;;;;;16.00;66.10;;;;;;4073793;29;19926;-85
2023/09/13 02:38:59;;;;;;;;;;;15.90;66.20;;;;;;4070024;29;19927;-85
2023/09/13 02:41:20;;;;;;;;;;;16.00;66.20;;;;;;4073406;29;19922;-86
2023/09/13 02:43:21;;;;;;;;;;;16.00;66.30;;;;;;4073758;29;21884;-86
2023/09/13 02:45:22;;;;;;;;;;;16.00;66.40;;;;;;4071516;29;20085;-86
2023/09/13 02:47:22;;;;;;;;;;;16.00;66.50;;;;;;4072017;29;19923;-85
2023/09/13 02:49:24;;;;;;;;;;;16.00;66.50;;;;;;4067551;29;19922;-86
2023/09/13 02:51:47;;;;;;;;;;;16.00;66.60;;;;;;4070918;29;19933;-86
2023/09/13 02:54:07;;;;;;;;;;;16.00;66.50;;;;;;4070134;29;19926;-87
2023/09/13 02:56:31;;;;;;;;;;;15.90;66.60;;;;;;4069826;29;19927;-86
2023/09/13 02:58:32;;;;;;;;;;;15.90;66.40;;;;;;4069453;29;19923;-86
2023/09/13 03:00:54;;;;;;;;;;;16.00;66.50;;;;;;4067137;29;19922;-86
2023/09/13 03:03:14;;;;;;;;;;;16.00;66.60;;;;;;4065445;29;20519;-85
2023/09/13 03:05:36;;;;;;;;;;;15.90;66.50;;;;;;4072052;29;20416;-86
2023/09/13 03:07:59;;;;;;;;;;;15.90;66.40;;;;;;4073405;29;19930;-85
2023/09/13 03:10:19;;;;;;;;;;;15.90;66.30;;;;;;4072996;28;19929;-86
2023/09/13 03:12:40;;;;;;;;;;;15.90;66.30;;;;;;4069440;28;19931;-84
2023/09/13 03:15:01;;;;;;;;;;;15.90;66.40;;;;;;4068548;29;19927;-85
2023/09/13 03:17:21;;;;;;;;;;;16.00;66.70;;;;;;4094041;28;19922;-84
2023/09/13 03:19:42;;;;;;;;;;;16.00;66.30;;;;;;4084169;28;19933;-87
2023/09/13 03:22:02;;;;;;;;;;;15.90;66.90;;;;;;4075260;29;19930;-85
2023/09/13 03:24:23;;;;;;;;;;;15.90;66.30;;;;;;4074168;28;19919;-85
2023/09/13 03:26:44;;;;;;;;;;;15.90;66.30;;;;;;4073585;29;19923;-84
2023/09/13 03:28:46;;;;;;;;;;;15.90;66.20;;;;;;4076613;29;21149;-85
2023/09/13 03:30:46;;;;;;;;;;;15.90;66.00;;;;;;4074690;29;19922;-85
2023/09/13 03:32:47;;;;;;;;;;;15.90;66.00;;;;;;4075264;29;20173;-86
2023/09/13 03:34:51;;;;;;;;;;;15.90;66.30;;;;;;4089032;28;20009;-85
2023/09/13 03:37:12;;;;;;;;;;;15.80;66.20;;;;;;4072947;29;19923;-85
2023/09/13 03:39:34;;;;;;;;;;;15.80;66.10;;;;;;4074711;29;19934;-85
2023/09/13 03:41:56;;;;;;;;;;;15.80;66.30;;;;;;4072941;28;19991;-86
2023/09/13 03:44:16;;;;;;;;;;;15.90;66.40;;;;;;4073591;29;19944;-85
2023/09/13 03:46:37;;;;;;;;;;;15.90;66.60;;;;;;4082240;28;19922;-85
2023/09/13 03:48:58;;;;;;;;;;;15.80;66.50;;;;;;4075114;29;19938;-86
2023/09/13 03:51:18;;;;;;;;;;;15.80;66.60;;;;;;4073217;29;19979;-85
2023/09/13 03:53:39;;;;;;;;;;;15.80;66.60;;;;;;4073845;28;20021;-85
2023/09/13 03:56:00;;;;;;;;;;;15.80;66.60;;;;;;4075387;28;19923;-85
2023/09/13 03:58:21;;;;;;;;;;;15.80;66.60;;;;;;4074038;29;19930;-86
2023/09/13 04:00:30;;;;;;;;;;;15.80;66.70;;;;;;4074134;29;20002;-85
2023/09/13 04:02:31;;;;;;;;;;;15.80;66.70;;;;;;4068453;29;20014;-87
2023/09/13 04:04:51;;;;;;;;;;;15.80;66.80;;;;;;4072097;29;19922;-84
2023/09/13 04:07:12;;;;;;;;;;;15.70;66.60;;;;;;4072300;29;19922;-84
2023/09/13 04:09:32;;;;;;;;;;;15.80;66.70;;;;;;4076354;29;19923;-86
2023/09/13 04:11:53;;;;;;;;;;;15.70;66.70;;;;;;4075523;29;19923;-84
2023/09/13 04:14:13;;;;;;;;;;;15.70;66.90;;;;;;4076528;29;19926;-85
2023/09/13 04:16:34;;;;;;;;;;;15.70;66.80;;;;;;4075522;29;20094;-86
2023/09/13 04:18:54;;;;;;;;;;;15.60;66.90;;;;;;4087091;28;19926;-83
2023/09/13 04:21:08;;;;;;;;;;;15.60;67.00;;;;;;4094234;28;19915;-85
2023/09/13 04:23:09;;;;;;;;;;;15.60;67.10;;;;;;4093943;28;19921;-86
2023/09/13 04:25:10;;;;;;;;;;;15.60;67.30;;;;;;4083954;29;19929;-85
2023/09/13 04:27:31;;;;;;;;;;;15.60;67.20;;;;;;4069741;29;19929;-85
2023/09/13 04:29:52;;;;;;;;;;;15.60;67.40;;;;;;4071976;29;20565;-86
2023/09/13 04:32:13;;;;;;;;;;;15.60;67.50;;;;;;4084483;28;19923;-85
2023/09/13 04:34:36;;;;;;;;;;;15.50;67.50;;;;;;4072864;29;19936;-84
2023/09/13 04:36:57;;;;;;;;;;;15.50;67.60;;;;;;4074741;29;19925;-84
2023/09/13 04:39:18;;;;;;;;;;;15.50;67.60;;;;;;4070308;29;19931;-85
2023/09/13 04:41:38;;;;;;;;;;;15.50;67.60;;;;;;4071282;29;19919;-85
2023/09/13 04:43:39;;;;;;;;;;;15.50;67.70;;;;;;4073128;29;20660;-86
2023/09/13 04:45:59;;;;;;;;;;;15.50;67.90;;;;;;4083216;28;19927;-85
2023/09/13 04:48:20;;;;;;;;;;;15.40;67.90;;;;;;4071624;29;19926;-85
2023/09/13 04:50:40;;;;;;;;;;;15.40;68.00;;;;;;4075569;29;19930;-86
2023/09/13 04:53:01;;;;;;;;;;;15.40;68.10;;;;;;4073061;29;19927;-86
2023/09/13 04:55:23;;;;;;;;;;;15.40;68.00;;;;;;4087133;28;19950;-87
2023/09/13 04:57:44;;;;;;;;;;;15.40;68.00;;;;;;4069941;29;19922;-86
2023/09/13 05:00:08;;;;;;;;;;;15.40;68.10;;;;;;4074355;29;19923;-84
2023/09/13 05:02:29;;;;;;;;;;;15.40;68.10;;;;;;4072887;29;19927;-84
2023/09/13 05:04:49;;;;;;;;;;;15.30;68.10;;;;;;4069601;29;19927;-86
2023/09/13 05:07:10;;;;;;;;;;;15.30;68.10;;;;;;4069028;29;19927;-83
2023/09/13 05:09:30;;;;;;;;;;;15.30;68.10;;;;;;4069135;29;20055;-85
2023/09/13 05:11:32;;;;;;;;;;;15.30;68.20;;;;;;4085928;28;19981;-86
2023/09/13 05:13:37;;;;;;;;;;;15.30;68.10;;;;;;4073770;29;20551;-85
2023/09/13 05:15:57;;;;;;;;;;;15.30;68.20;;;;;;4073909;29;19923;-84
2023/09/13 05:17:58;;;;;;;;;;;15.30;68.30;;;;;;4074456;29;20304;-83
2023/09/13 05:20:19;;;;;;;;;;;15.30;68.30;;;;;;4071418;29;20021;-85
2023/09/13 05:22:39;;;;;;;;;;;15.30;68.40;;;;;;4075059;29;19927;-83
2023/09/13 05:25:03;;;;;;;;;;;15.30;68.60;;;;;;4074426;29;19950;-85
2023/09/13 05:27:23;;;;;;;;;;;15.30;68.60;;;;;;4073710;29;19923;-84
2023/09/13 05:29:44;;;;;;;;;;;15.20;68.60;;;;;;4072118;29;19921;-85
2023/09/13 05:32:04;;;;;;;;;;;15.20;68.70;;;;;;4072025;29;19923;-84
2023/09/13 05:34:25;;;;;;;;;;;15.20;68.70;;;;;;4071917;29;19937;-84
2023/09/13 05:36:45;;;;;;;;;;;15.30;68.90;;;;;;4069396;29;20015;-84
2023/09/13 05:38:48;;;;;;;;;;;15.20;68.70;;;;;;4085834;28;20478;-86
2023/09/13 05:40:48;;;;;;;;;;;15.20;68.50;;;;;;4075752;29;19922;-85
2023/09/13 05:42:49;;;;;;;;;;;15.20;68.40;;;;;;4078851;29;19978;-84
2023/09/13 05:44:50;;;;;;;;;;;15.20;68.30;;;;;;4077020;29;19922;-85
2023/09/13 05:46:53;;;;;;;;;;;15.20;68.30;;;;;;4079813;29;19919;-84
2023/09/13 05:49:08;;;;;;;;;;;15.20;68.20;;;;;;4091274;28;19914;-84
2023/09/13 05:51:30;;;;;;;;;;;15.10;68.10;;;;;;4073317;29;19922;-84
2023/09/13 05:53:31;;;;;;;;;;;15.10;68.10;;;;;;4077257;29;19919;-85
2023/09/13 05:55:51;;;;;;;;;;;15.10;68.20;;;;;;4075375;29;20673;-84
2023/09/13 05:58:12;;;;;;;;;;;15.10;68.20;;;;;;4076725;29;20054;-84
2023/09/13 06:00:33;;;;;;;;;;;15.10;68.30;;;;;;4075937;28;20009;-84
2023/09/13 06:02:53;;;;;;;;;;;15.10;68.30;;;;;;4098153;28;19926;-84
2023/09/13 06:05:14;;;;;;;;;;;15.10;68.30;;;;;;4087502;28;19919;-84
2023/09/13 06:07:35;;;;;;;;;;;15.10;68.40;;;;;;4076706;29;19915;-83
2023/09/13 06:09:58;;;;;;;;;;;15.10;68.40;;;;;;4072410;29;19919;-85
2023/09/13 06:12:01;;;;;;;;;;;15.10;68.40;;;;;;4076856;29;19919;-84
2023/09/13 06:14:07;;;;;;;;;;;15.00;68.30;;;;;;4075840;29;19926;-85
2023/09/13 06:16:28;;;;;;;;;;;15.10;68.30;;;;;;4085695;28;19914;-85
2023/09/13 06:18:49;;;;;;;;;;;15.10;68.20;;;;;;4088955;28;19954;-87
2023/09/13 06:21:12;;;;;;;;;;;15.10;68.00;;;;;;4073847;29;19923;-84
2023/09/13 06:23:39;;;;;;;;;;;15.00;67.90;;;;;;4076226;29;20512;-85
2023/09/13 06:26:00;;;;;;;;;;;15.10;67.90;;;;;;4078734;29;19914;-85
2023/09/13 06:28:20;;;;;;;;;;;15.00;67.80;;;;;;4076338;29;19919;-84
2023/09/13 06:30:41;;;;;;;;;;;15.10;67.90;;;;;;4087174;28;19934;-84
2023/09/13 06:33:04;;;;;;;;;;;15.10;67.90;;;;;;4075873;29;19958;-85
2023/09/13 06:35:24;;;;;;;;;;;15.10;67.80;;;;;;4075411;29;20004;-84
2023/09/13 06:37:45;;;;;;;;;;;15.10;67.80;;;;;;4088002;28;20021;-84
2023/09/13 06:40:06;;;;;;;;;;;15.00;67.60;;;;;;4074749;29;19982;-85
2023/09/13 06:42:27;;;;;;;;;;;15.00;67.60;;;;;;4073750;29;20041;-84
2023/09/13 06:44:47;;;;;;;;;;;15.10;67.60;;;;;;4076509;29;19919;-84
2023/09/13 06:47:08;;;;;;;;;;;15.00;67.50;;;;;;4074598;29;19966;-84
2023/09/13 06:49:29;;;;;;;;;;;15.10;67.60;;;;;;4087217;28;19936;-86
2023/09/13 06:51:49;;;;;;;;;;;15.20;67.70;;;;;;4074616;29;19941;-85
2023/09/13 06:54:10;;;;;;;;;;;15.10;67.60;;;;;;4074172;29;19926;-85
2023/09/13 06:56:10;;;;;;;;;;;15.10;67.50;;;;;;4075683;29;19982;-83
2023/09/13 06:58:11;;;;;;;;;;;15.10;67.50;;;;;;4074342;29;19915;-85
2023/09/13 07:00:12;;;;;;;;;;;15.10;67.50;;;;;;4070819;29;19915;-85
2023/09/13 07:02:12;;;;;;;;;;;15.10;67.50;;;;;;4075602;29;19923;-83
2023/09/13 07:04:33;;;;;;;;;;;15.20;67.50;;;;;;4073447;29;20010;-84
2023/09/13 07:06:53;;;;;;;;;;;15.10;67.50;;;;;;4076677;29;20018;-85
2023/09/13 07:09:14;;;;;;;;;;;15.20;67.50;;;;;;4075849;29;20034;-84
2023/09/13 07:11:34;;;;;;;;;;;15.20;67.40;;;;;;4076747;29;19949;-84
2023/09/13 07:13:55;;;;;;;;;;;15.20;68.10;;;;;;4075496;29;19969;-84
2023/09/13 07:16:15;;;;;;;;;;;15.20;67.10;;;;;;4077051;29;19919;-85
2023/09/13 07:18:36;;;;;;;;;;;15.30;67.30;;;;;;4074282;29;19926;-83
2023/09/13 07:20:37;;;;;;;;;;;15.20;67.30;;;;;;4071981;29;19915;-84
2023/09/13 07:22:37;;;;;;;;;;;15.30;67.30;;;;;;4073783;29;20037;-83
2023/09/13 07:24:42;;;;;;;;;;;15.30;67.30;;;;;;4090408;28;20036;-84
2023/09/13 07:27:02;;;;;;;;;;;15.20;67.10;;;;;;4075343;29;19914;-84
2023/09/13 07:29:23;;;;;;;;;;;15.30;67.20;;;;;;4071963;29;19923;-86
2023/09/13 07:31:43;;;;;;;;;;;15.30;67.10;;;;;;4084637;28;19925;-84
2023/09/13 07:34:04;;;;;;;;;;;15.30;66.90;;;;;;4070557;29;19937;-85
2023/09/13 07:36:25;;;;;;;;;;;15.30;66.80;;;;;;4074453;29;19998;-84
2023/09/13 07:38:45;;;;;;;;;;;15.30;66.60;;;;;;4075073;29;19923;-84
2023/09/13 07:40:47;;;;;;;;;;;15.30;66.60;;;;;;4073577;29;20010;-85
2023/09/13 07:42:47;;;;;;;;;;;15.30;66.50;;;;;;4076993;29;19986;-85
2023/09/13 07:44:48;;;;;;;;;;;15.30;66.30;;;;;;4070799;29;20013;-84
2023/09/13 07:47:08;;;;;;;;;;;15.30;66.30;;;;;;4077102;29;19988;-84
2023/09/13 07:49:29;;;;;;;;;;;15.30;66.30;;;;;;4076594;29;19918;-84
2023/09/13 07:51:30;;;;;;;;;;;15.30;66.30;;;;;;4075489;29;19946;-84
2023/09/13 07:53:53;;;;;;;;;;;15.30;66.40;;;;;;4078768;29;19914;-84
2023/09/13 07:56:14;;;;;;;;;;;15.30;66.20;;;;;;4076210;29;19998;-83
2023/09/13 07:58:17;;;;;;;;;;;15.30;66.20;;;;;;4057274;29;19922;-85
2023/09/13 08:00:37;;;;;;;;;;;15.30;66.30;;;;;;4072925;29;20009;-84
2023/09/13 08:02:58;;;;;;;;;;;15.30;66.10;;;;;;4075831;29;19950;-85
2023/09/13 08:05:19;;;;;;;;;;;15.40;66.30;;;;;;4081253;29;19997;-84
2023/09/13 08:07:39;;;;;;;;;;;15.30;66.20;;;;;;4099316;28;19911;-83
2023/09/13 08:10:02;;;;;;;;;;;15.30;66.20;;;;;;4101022;28;19934;-85
2023/09/13 08:12:23;;;;;;;;;;;15.40;66.00;;;;;;4103126;28;19915;-86
2023/09/13 08:14:23;;;;;;;;;;;15.40;66.30;;;;;;4103720;28;19966;-83
2023/09/13 08:16:24;;;;;;;;;;;15.40;66.00;;;;;;4102456;28;19958;-83
2023/09/13 08:18:45;;;;;;;;;;;15.50;66.00;;;;;;4114305;28;19986;-84
2023/09/13 08:21:06;;;;;;;;;;;15.50;65.80;;;;;;4097634;28;19930;-84
2023/09/13 08:23:26;;;;;;;;;;;15.60;65.30;;;;;;4073199;29;19914;-85
2023/09/13 08:25:47;;;;;;;;;;;15.50;65.00;;;;;;4076975;29;20021;-85
2023/09/13 08:28:08;;;;;;;;;;;15.60;64.40;;;;;;4080794;29;19969;-84
2023/09/13 08:30:29;;;;;;;;;;;15.70;64.70;;;;;;4091670;28;19958;-85
2023/09/13 08:32:50;;;;;;;;;;;15.70;64.40;;;;;;4078312;29;19966;-85
2023/09/13 08:35:10;;;;;;;;;;;15.70;64.20;;;;;;4079678;29;19927;-85
2023/09/13 08:37:12;;;;;;;;;;;15.70;64.20;;;;;;4078684;29;19921;-85
2023/09/13 08:39:13;;;;;;;;;;;15.70;63.80;;;;;;4060426;29;19962;-85
2023/09/13 08:41:22;;;;;;;;;;;15.70;63.50;;;;;;4076157;29;19915;-85
2023/09/13 08:43:43;;;;;;;;;;;15.80;63.70;;;;;;4075798;29;19946;-87
2023/09/13 08:46:06;;;;;;;;;;;15.80;62.90;;;;;;4078071;29;19911;-85
2023/09/13 08:48:27;;;;;;;;;;;15.80;62.70;;;;;;4078265;29;20005;-85
2023/09/13 08:50:51;;;;;;;;;;;15.80;62.50;;;;;;4081128;28;19902;-86
2023/09/13 08:53:12;;;;;;;;;;;15.90;62.10;;;;;;4098257;28;19906;-84
2023/09/13 08:55:33;;;;;;;;;;;15.90;61.90;;;;;;4094364;28;19930;-84
2023/09/13 08:58:00;;;;;;;;;;;16.00;61.90;;;;;;4073598;29;20018;-85
2023/09/13 09:00:22;;;;;;;;;;;16.00;62.00;;;;;;4077081;29;19923;-84
2023/09/13 09:02:24;;;;;;;;;;;16.10;62.00;;;;;;4075730;29;19946;-84
2023/09/13 09:04:25;;;;;;;;;;;16.10;62.10;;;;;;4073863;29;19958;-84
2023/09/13 09:06:46;;;;;;;;;;;16.10;61.60;;;;;;4090800;28;19930;-85
2023/09/13 09:09:07;;;;;;;;;;;16.20;61.80;;;;;;4074502;29;19918;-85
2023/09/13 09:11:29;;;;;;;;;;;16.20;62.20;;;;;;4077721;29;19915;-84
2023/09/13 09:13:52;;;;;;;;;;;16.20;59.90;;;;;;4077081;29;19915;-84
2023/09/13 09:16:13;;;;;;;;;;;16.20;59.90;;;;;;4079519;29;19926;-85
2023/09/13 09:18:37;;;;;;;;;;;16.30;59.90;;;;;;4080443;29;19918;-85
2023/09/13 09:20:59;;;;;;;;;;;16.30;60.20;;;;;;4063864;29;19918;-84
2023/09/13 09:23:20;;;;;;;;;;;16.30;59.90;;;;;;4077382;29;19915;-84
2023/09/13 09:25:44;;;;;;;;;;;16.30;60.00;;;;;;4080811;29;19994;-85
2023/09/13 09:27:45;;;;;;;;;;;16.40;59.80;;;;;;4079671;29;19925;-85
2023/09/13 09:30:07;;;;;;;;;;;16.30;59.60;;;;;;4097642;28;20956;-84
2023/09/13 09:32:28;;;;;;;;;;;16.40;59.60;;;;;;4099403;28;19907;-83
2023/09/13 09:34:31;;;;;;;;;;;16.40;59.60;;;;;;4111448;28;19927;-86
2023/09/13 09:36:52;;;;;;;;;;;16.40;59.30;;;;;;4095906;28;19933;-84
2023/09/13 09:39:12;;;;;;;;;;;16.40;59.30;;;;;;4077298;29;20305;-84
2023/09/13 09:41:38;;;;;;;;;;;16.50;59.30;;;;;;4079353;29;19925;-84
2023/09/13 09:43:58;;;;;;;;;;;16.40;59.10;;;;;;4077946;29;19961;-84
2023/09/13 09:46:19;;;;;;;;;;;16.50;59.30;;;;;;4077387;29;19963;-84
2023/09/13 09:48:20;;;;;;;;;;;16.50;59.00;;;;;;4092469;28;19918;-85
2023/09/13 09:50:45;;;;;;;;;;;16.50;58.80;;;;;;4077147;29;19914;-85
2023/09/13 09:53:16;;;;;;;;;;;16.50;58.80;;;;;;4076476;29;20002;-85
2023/09/13 09:55:21;;;;;;;;;;;16.50;58.70;;;;;;4059873;29;19941;-85
2023/09/13 09:57:46;;;;;;;;;;;16.40;58.80;;;;;;4075001;29;19925;-84
2023/09/13 10:00:09;;;;;;;;;;;16.50;59.00;;;;;;4078067;29;19997;-86
2023/09/13 10:02:30;;;;;;;;;;;16.40;58.90;;;;;;4076379;29;19919;-84
2023/09/13 10:04:51;;;;;;;;;;;16.40;59.00;;;;;;4074279;29;19923;-83
2023/09/13 10:06:55;;;;;;;;;;;16.40;59.00;;;;;;4073311;29;19962;-84
2023/09/13 10:09:16;;;;;;;;;;;16.40;59.00;;;;;;4075533;29;19975;-84
2023/09/13 10:11:37;;;;;;;;;;;16.40;59.00;;;;;;4079271;29;19922;-85
2023/09/13 10:13:57;;;;;;;;;;;16.40;58.90;;;;;;4077683;29;19954;-85
2023/09/13 10:16:18;;;;;;;;;;;16.40;59.00;;;;;;4080391;29;19970;-85
2023/09/13 10:18:54;;;;;;;;;;;16.50;59.10;;;;;;4075616;28;19930;-84
2023/09/13 10:21:24;;;;;;;;;;;16.40;59.00;;;;;;4079316;29;19950;-84
2023/09/13 10:23:45;;;;;;;;;;;16.50;59.20;;;;;;4089679;28;19914;-85
2023/09/13 10:26:07;;;;;;;;;;;16.50;59.10;;;;;;4078346;29;19942;-84
2023/09/13 10:28:12;;;;;;;;;;;16.50;59.20;;;;;;4088541;28;20035;-84
2023/09/13 10:30:13;;;;;;;;;;;16.50;58.70;;;;;;4076813;29;19929;-85
2023/09/13 10:32:15;;;;;;;;;;;16.50;59.10;;;;;;4092912;28;20381;-84
2023/09/13 10:34:18;;;;;;;;;;;16.50;57.90;;;;;;4076351;29;19957;-84
2023/09/13 10:36:30;;;;;;;;;;;16.50;58.00;;;;;;4057431;29;19919;-86
2023/09/13 10:38:37;;;;;;;;;;;16.50;58.30;;;;;;4075811;29;20005;-85
2023/09/13 10:41:06;;;;;;;;;;;16.40;58.40;;;;;;4075694;29;19919;-86
2023/09/13 10:43:28;;;;;;;;;;;16.40;58.10;;;;;;4073797;29;19962;-85
2023/09/13 10:45:48;;;;;;;;;;;16.40;58.20;;;;;;4077497;29;19910;-85
2023/09/13 10:48:10;;;;;;;;;;;16.30;57.90;;;;;;4075530;29;20001;-85
2023/09/13 10:50:31;;;;;;;;;;;16.40;57.70;;;;;;4088439;28;19926;-85
2023/09/13 10:52:52;;;;;;;;;;;16.40;58.00;;;;;;4074357;29;19941;-85
2023/09/13 10:54:54;;;;;;;;;;;16.30;58.10;;;;;;4071920;29;19923;-86
2023/09/13 10:56:55;;;;;;;;;;;16.20;58.00;;;;;;4076381;29;19918;-84
2023/09/13 10:58:58;;;;;;;;;;;16.20;58.20;;;;;;4075916;29;20018;-83
2023/09/13 11:01:19;;;;;;;;;;;16.20;58.40;;;;;;4075085;29;19958;-84
2023/09/13 11:03:41;;;;;;;;;;;16.20;58.70;;;;;;4086033;28;19946;-86
2023/09/13 11:06:02;;;;;;;;;;;16.10;58.90;;;;;;4075763;29;19925;-87
2023/09/13 11:08:33;;;;;;;;;;;16.00;59.00;;;;;;4077255;29;19919;-86
2023/09/13 11:10:54;;;;;;;;;;;16.00;59.30;;;;;;4087253;28;19950;-85
2023/09/13 11:13:15;;;;;;;;;;;16.00;59.60;;;;;;4073477;29;19919;-86
2023/09/13 11:15:46;;;;;;;;;;;15.90;59.90;;;;;;4076197;29;19982;-85
2023/09/13 11:18:16;;;;;;;;;;;15.80;59.90;;;;;;4076122;29;19915;-86
2023/09/13 11:20:38;;;;;;;;;;;15.80;60.30;;;;;;4072380;29;19915;-87
2023/09/13 11:23:03;;;;;;;;;;;15.80;60.90;;;;;;4073329;29;19951;-86
2023/09/13 11:25:24;;;;;;;;;;;15.70;61.90;;;;;;4088019;28;19919;-85
2023/09/13 11:27:48;;;;;;;;;;;15.60;62.30;;;;;;4074435;28;19926;-85
2023/09/13 11:30:09;;;;;;;;;;;15.60;62.30;;;;;;4073666;29;19919;-85
2023/09/13 11:32:25;;;;;;;;;;;15.60;63.00;;;;;;4073688;29;20124;-85
2023/09/13 11:34:27;;;;;;;;;;;15.60;63.10;;;;;;4073937;29;19923;-86
2023/09/13 11:36:56;;;;;;;;;;;15.50;63.80;;;;;;4076680;29;19919;-86
2023/09/13 11:39:20;;;;;;;;;;;15.50;63.90;;;;;;4086746;28;19919;-84
2023/09/13 11:41:40;;;;;;;;;;;15.50;64.50;;;;;;4074012;29;19926;-84
2023/09/13 11:44:01;;;;;;;;;;;15.50;64.90;;;;;;4091776;28;19925;-84
2023/09/13 11:46:22;;;;;;;;;;;15.50;65.30;;;;;;4098032;28;19925;-85
2023/09/13 11:48:43;;;;;;;;;;;15.50;65.70;;;;;;4099495;29;19903;-84
2023/09/13 11:50:44;;;;;;;;;;;15.50;66.70;;;;;;4067232;29;20013;-84
2023/09/13 11:53:16;;;;;;;;;;;15.60;66.50;;;;;;4089408;28;19914;-84
2023/09/13 11:55:28;;;;;;;;;;;15.50;67.20;;;;;;4082578;29;19962;-86
2023/09/13 11:57:49;;;;;;;;;;;15.60;68.00;;;;;;4080770;29;19919;-85
2023/09/13 12:00:14;;;;;;;;;;;15.60;67.20;;;;;;4077661;29;19915;-86
2023/09/13 12:02:34;;;;;;;;;;;15.60;67.70;;;;;;4073939;29;19923;-86
2023/09/13 12:04:55;;;;;;;;;;;15.70;67.30;;;;;;4076505;29;19930;-86
2023/09/13 12:07:16;;;;;;;;;;;15.70;68.10;;;;;;4094546;28;19921;-85
2023/09/13 12:09:37;;;;;;;;;;;15.70;67.60;;;;;;4093908;28;19918;-85
2023/09/13 12:11:58;;;;;;;;;;;15.80;67.30;;;;;;4080834;29;19915;-84
2023/09/13 12:14:00;;;;;;;;;;;15.80;67.20;;;;;;4063769;29;20476;-85
2023/09/13 12:16:20;;;;;;;;;;;15.80;67.30;;;;;;4074782;29;19915;-84
2023/09/13 12:18:41;;;;;;;;;;;15.90;67.30;;;;;;4080469;28;20005;-85
2023/09/13 12:21:03;;;;;;;;;;;15.90;67.20;;;;;;4079566;29;19919;-84
2023/09/13 12:23:23;;;;;;;;;;;16.00;67.40;;;;;;4079173;29;20401;-85
2023/09/13 12:25:46;;;;;;;;;;;16.00;67.30;;;;;;4078392;29;19925;-85
2023/09/13 12:28:06;;;;;;;;;;;16.10;67.10;;;;;;4078941;28;19966;-85
2023/09/13 12:30:27;;;;;;;;;;;16.10;67.10;;;;;;4079331;29;19994;-85
2023/09/13 12:32:28;;;;;;;;;;;16.10;67.10;;;;;;4077860;29;19957;-85
2023/09/13 12:34:48;;;;;;;;;;;16.20;67.10;;;;;;4078574;29;20092;-85
2023/09/13 12:36:49;;;;;;;;;;;16.20;67.00;;;;;;4089748;28;20018;-85
2023/09/13 12:39:14;;;;;;;;;;;16.20;66.80;;;;;;4077351;28;19926;-84
2023/09/13 12:41:34;;;;;;;;;;;16.30;66.70;;;;;;4078219;28;19918;-85
2023/09/13 12:43:55;;;;;;;;;;;16.30;66.40;;;;;;4076904;29;19934;-86
2023/09/13 12:46:17;;;;;;;;;;;16.30;66.30;;;;;;4087915;28;19926;-85
2023/09/13 12:48:38;;;;;;;;;;;16.40;66.30;;;;;;4076636;29;19966;-87
2023/09/13 12:50:59;;;;;;;;;;;16.40;66.20;;;;;;4088593;28;19922;-85
2023/09/13 12:53:20;;;;;;;;;;;16.40;66.00;;;;;;4089292;28;19918;-85
2023/09/13 12:55:42;;;;;;;;;;;16.50;66.10;;;;;;4077196;29;19935;-84
2023/09/13 12:58:06;;;;;;;;;;;16.60;66.10;;;;;;4075081;29;20503;-84
2023/09/13 13:00:27;;;;;;;;;;;16.60;66.20;;;;;;4078764;29;19915;-84
2023/09/13 13:02:32;;;;;;;;;;;16.60;66.50;;;;;;4076640;29;20420;-84
2023/09/13 13:04:53;;;;;;;;;;;16.70;66.40;;;;;;4075445;29;19922;-84
2023/09/13 13:07:21;;;;;;;;;;;16.70;66.20;;;;;;4077004;29;19919;-84
2023/09/13 13:09:48;;;;;;;;;;;16.80;66.20;;;;;;4075350;29;20353;-85
2023/09/13 13:12:14;;;;;;;;;;;16.90;66.40;;;;;;4078599;29;19919;-85
2023/09/13 13:14:34;;;;;;;;;;;17.00;66.20;;;;;;4077226;29;20600;-85
2023/09/13 13:16:56;;;;;;;;;;;17.00;65.40;;;;;;4077844;29;19916;-85
2023/09/13 13:18:56;;;;;;;;;;;17.10;65.20;;;;;;4077412;29;19958;-85